sensor_id;sensor_type;location;lat;lon;timestamp;temperature;humidity
15916;DHT22;8057;47.830;-3.870;2023-02-03T00:03:04;8.90;99.90
15916;DHT22;8057;47.830;-3.870;2023-02-03T00:07:14;8.90;99.90
15916;DHT22;8057;47.830;-3.870;2023-02-03T00:11:23;9.00;99.90
15916;DHT22;8057;47.830;-3.870;2023-02-03T00:15:33;9.00;99.90
15916;DHT22;8057;47.830;-3.870;2023-02-03T00:19:43;9.00;99.90
15916;DHT22;8057;47.830;-3.870;2023-02-03T00:23:52;9.00;99.90
15916;DHT22;8057;47.830;-3.870;2023-02-03T00:28:02;9.00;99.90
15916;DHT22;8057;47.830;-3.870;2023-02-03T00:32:12;9.10;99.90
15916;DHT22;8057;47.830;-3.870;2023-02-03T00:36:23;9.10;99.90
15916;DHT22;8057;47.830;-3.870;2023-02-03T00:40:33;9.20;99.90
15916;DHT22;8057;47.830;-3.870;2023-02-03T00:44:42;9.20;99.90
15916;DHT22;8057;47.830;-3.870;2023-02-03T00:48:51;9.20;99.90
15916;DHT22;8057;47.830;-3.870;2023-02-03T00:53:02;9.10;99.90
15916;DHT22;8057;47.830;-3.870;2023-02-03T00:57:12;9.10;99.90
15916;DHT22;8057;47.830;-3.870;2023-02-03T01:01:21;9.10;99.90
15916;DHT22;8057;47.830;-3.870;2023-02-03T01:05:30;9.10;99.90
15916;DHT22;8057;47.830;-3.870;2023-02-03T01:09:41;9.10;99.90
15916;DHT22;8057;47.830;-3.870;2023-02-03T01:13:51;9.20;99.90
15916;DHT22;8057;47.830;-3.870;2023-02-03T01:18:01;9.20;99.90
15916;DHT22;8057;47.830;-3.870;2023-02-03T01:22:10;9.20;99.90
15916;DHT22;8057;47.830;-3.870;2023-02-03T01:26:21;9.20;99.90
15916;DHT22;8057;47.830;-3.870;2023-02-03T01:30:31;9.10;99.90
15916;DHT22;8057;47.830;-3.870;2023-02-03T01:34:40;9.10;99.90
15916;DHT22;8057;47.830;-3.870;2023-02-03T01:38:50;9.20;99.90
15916;DHT22;8057;47.830;-3.870;2023-02-03T01:43:00;9.10;99.90
15916;DHT22;8057;47.830;-3.870;2023-02-03T01:47:21;9.20;99.90
15916;DHT22;8057;47.830;-3.870;2023-02-03T01:51:34;9.20;99.90
15916;DHT22;8057;47.830;-3.870;2023-02-03T01:55:47;9.20;99.90
15916;DHT22;8057;47.830;-3.870;2023-02-03T02:00:00;9.30;99.90
15916;DHT22;8057;47.830;-3.870;2023-02-03T02:04:11;9.20;99.90
15916;DHT22;8057;47.830;-3.870;2023-02-03T02:08:21;9.20;99.90
15916;DHT22;8057;47.830;-3.870;2023-02-03T02:12:31;9.20;99.90
15916;DHT22;8057;47.830;-3.870;2023-02-03T02:16:48;9.30;99.90
15916;DHT22;8057;47.830;-3.870;2023-02-03T02:26:00;9.20;99.90
15916;DHT22;8057;47.830;-3.870;2023-02-03T02:30:48;9.20;99.90
15916;DHT22;8057;47.830;-3.870;2023-02-03T02:35:10;9.10;99.90
15916;DHT22;8057;47.830;-3.870;2023-02-03T02:39:38;9.10;99.90
15916;DHT22;8057;47.830;-3.870;2023-02-03T02:43:59;9.10;99.90
15916;DHT22;8057;47.830;-3.870;2023-02-03T02:48:15;9.10;99.90
15916;DHT22;8057;47.830;-3.870;2023-02-03T02:52:31;9.20;99.90
15916;DHT22;8057;47.830;-3.870;2023-02-03T02:56:44;9.20;99.90
15916;DHT22;8057;47.830;-3.870;2023-02-03T03:00:55;9.20;99.90
15916;DHT22;8057;47.830;-3.870;2023-02-03T03:05:07;9.20;99.90
15916;DHT22;8057;47.830;-3.870;2023-02-03T03:09:22;9.20;99.90
15916;DHT22;8057;47.830;-3.870;2023-02-03T03:13:35;9.20;99.90
15916;DHT22;8057;47.830;-3.870;2023-02-03T03:17:50;9.30;99.90
15916;DHT22;8057;47.830;-3.870;2023-02-03T03:22:04;9.30;99.90
15916;DHT22;8057;47.830;-3.870;2023-02-03T03:26:23;9.40;99.90
15916;DHT22;8057;47.830;-3.870;2023-02-03T03:30:36;9.50;99.90
15916;DHT22;8057;47.830;-3.870;2023-02-03T03:34:51;9.50;99.90
15916;DHT22;8057;47.830;-3.870;2023-02-03T03:39:04;9.50;99.90
15916;DHT22;8057;47.830;-3.870;2023-02-03T03:43:16;9.50;99.90
15916;DHT22;8057;47.830;-3.870;2023-02-03T03:47:31;9.50;99.90
15916;DHT22;8057;47.830;-3.870;2023-02-03T03:51:45;9.50;99.90
15916;DHT22;8057;47.830;-3.870;2023-02-03T03:55:59;9.50;99.90
15916;DHT22;8057;47.830;-3.870;2023-02-03T04:00:15;9.40;99.90
15916;DHT22;8057;47.830;-3.870;2023-02-03T04:04:26;9.50;99.90
15916;DHT22;8057;47.830;-3.870;2023-02-03T04:08:35;9.50;99.90
15916;DHT22;8057;47.830;-3.870;2023-02-03T04:12:47;9.50;99.90
15916;DHT22;8057;47.830;-3.870;2023-02-03T04:16:58;9.40;99.90
15916;DHT22;8057;47.830;-3.870;2023-02-03T04:21:07;9.40;99.90
15916;DHT22;8057;47.830;-3.870;2023-02-03T04:25:16;9.40;99.90
15916;DHT22;8057;47.830;-3.870;2023-02-03T04:29:25;9.40;99.90
15916;DHT22;8057;47.830;-3.870;2023-02-03T04:33:36;9.40;99.90
15916;DHT22;8057;47.830;-3.870;2023-02-03T04:37:45;9.40;99.90
15916;DHT22;8057;47.830;-3.870;2023-02-03T04:41:54;9.40;99.90
15916;DHT22;8057;47.830;-3.870;2023-02-03T04:46:04;9.50;99.90
15916;DHT22;8057;47.830;-3.870;2023-02-03T04:50:15;9.50;99.90
15916;DHT22;8057;47.830;-3.870;2023-02-03T04:54:24;9.50;99.90
15916;DHT22;8057;47.830;-3.870;2023-02-03T04:58:33;9.50;99.90
15916;DHT22;8057;47.830;-3.870;2023-02-03T05:02:42;9.50;99.90
15916;DHT22;8057;47.830;-3.870;2023-02-03T05:06:53;9.60;99.90
15916;DHT22;8057;47.830;-3.870;2023-02-03T05:11:02;9.60;99.90
15916;DHT22;8057;47.830;-3.870;2023-02-03T05:15:14;9.60;99.90
15916;DHT22;8057;47.830;-3.870;2023-02-03T05:19:23;9.60;99.90
15916;DHT22;8057;47.830;-3.870;2023-02-03T05:23:33;9.60;99.90
15916;DHT22;8057;47.830;-3.870;2023-02-03T05:27:43;9.60;99.90
15916;DHT22;8057;47.830;-3.870;2023-02-03T05:31:52;9.60;99.90
15916;DHT22;8057;47.830;-3.870;2023-02-03T05:36:01;9.50;99.90
15916;DHT22;8057;47.830;-3.870;2023-02-03T05:40:13;9.50;99.90
15916;DHT22;8057;47.830;-3.870;2023-02-03T05:44:39;9.50;99.90
15916;DHT22;8057;47.830;-3.870;2023-02-03T05:48:49;9.60;99.90
15916;DHT22;8057;47.830;-3.870;2023-02-03T05:52:58;9.50;99.90
15916;DHT22;8057;47.830;-3.870;2023-02-03T05:57:09;9.50;99.90
15916;DHT22;8057;47.830;-3.870;2023-02-03T06:01:20;9.50;99.90
15916;DHT22;8057;47.830;-3.870;2023-02-03T06:05:30;9.40;99.90
15916;DHT22;8057;47.830;-3.870;2023-02-03T06:09:41;9.30;99.90
15916;DHT22;8057;47.830;-3.870;2023-02-03T06:13:51;9.30;99.90
15916;DHT22;8057;47.830;-3.870;2023-02-03T06:18:00;9.30;99.90
15916;DHT22;8057;47.830;-3.870;2023-02-03T06:22:10;9.30;99.90
15916;DHT22;8057;47.830;-3.870;2023-02-03T06:26:19;9.30;99.90
15916;DHT22;8057;47.830;-3.870;2023-02-03T06:30:29;9.20;99.90
15916;DHT22;8057;47.830;-3.870;2023-02-03T06:34:38;9.20;99.90
15916;DHT22;8057;47.830;-3.870;2023-02-03T06:38:48;9.20;99.90
15916;DHT22;8057;47.830;-3.870;2023-02-03T06:42:57;9.20;99.90
15916;DHT22;8057;47.830;-3.870;2023-02-03T06:47:07;9.20;99.90
15916;DHT22;8057;47.830;-3.870;2023-02-03T06:51:17;9.20;99.90
15916;DHT22;8057;47.830;-3.870;2023-02-03T06:55:26;9.20;99.90
15916;DHT22;8057;47.830;-3.870;2023-02-03T06:59:35;9.10;99.90
15916;DHT22;8057;47.830;-3.870;2023-02-03T07:03:45;9.00;99.90
15916;DHT22;8057;47.830;-3.870;2023-02-03T07:07:55;9.10;99.90
15916;DHT22;8057;47.830;-3.870;2023-02-03T07:12:04;9.00;99.90
15916;DHT22;8057;47.830;-3.870;2023-02-03T07:16:14;9.00;99.90
15916;DHT22;8057;47.830;-3.870;2023-02-03T07:20:26;9.10;99.90
15916;DHT22;8057;47.830;-3.870;2023-02-03T07:24:36;9.10;99.90
15916;DHT22;8057;47.830;-3.870;2023-02-03T07:28:45;9.10;99.90
15916;DHT22;8057;47.830;-3.870;2023-02-03T07:32:55;9.10;99.90
15916;DHT22;8057;47.830;-3.870;2023-02-03T07:37:08;9.10;99.90
15916;DHT22;8057;47.830;-3.870;2023-02-03T07:41:17;9.20;99.90
15916;DHT22;8057;47.830;-3.870;2023-02-03T07:45:26;9.20;99.90
15916;DHT22;8057;47.830;-3.870;2023-02-03T07:49:36;9.20;99.90
15916;DHT22;8057;47.830;-3.870;2023-02-03T07:53:47;9.30;99.90
15916;DHT22;8057;47.830;-3.870;2023-02-03T07:57:57;9.30;99.90
15916;DHT22;8057;47.830;-3.870;2023-02-03T08:02:09;9.20;99.90
15916;DHT22;8057;47.830;-3.870;2023-02-03T08:06:19;9.20;99.90
15916;DHT22;8057;47.830;-3.870;2023-02-03T08:10:29;9.20;99.90
15916;DHT22;8057;47.830;-3.870;2023-02-03T08:14:38;9.30;99.90
15916;DHT22;8057;47.830;-3.870;2023-02-03T08:18:48;9.30;99.90
15916;DHT22;8057;47.830;-3.870;2023-02-03T08:22:57;9.30;99.90
15916;DHT22;8057;47.830;-3.870;2023-02-03T08:27:08;9.40;99.90
15916;DHT22;8057;47.830;-3.870;2023-02-03T08:31:17;9.40;99.90
15916;DHT22;8057;47.830;-3.870;2023-02-03T08:35:27;9.40;99.90
15916;DHT22;8057;47.830;-3.870;2023-02-03T08:39:37;9.40;99.90
15916;DHT22;8057;47.830;-3.870;2023-02-03T08:43:47;9.40;99.90
15916;DHT22;8057;47.830;-3.870;2023-02-03T08:47:57;9.40;99.90
15916;DHT22;8057;47.830;-3.870;2023-02-03T08:52:09;9.50;99.90
15916;DHT22;8057;47.830;-3.870;2023-02-03T08:56:19;9.50;99.90
15916;DHT22;8057;47.830;-3.870;2023-02-03T09:00:30;9.60;99.90
15916;DHT22;8057;47.830;-3.870;2023-02-03T09:04:39;9.60;99.90
15916;DHT22;8057;47.830;-3.870;2023-02-03T09:08:48;9.60;99.90
15916;DHT22;8057;47.830;-3.870;2023-02-03T09:12:57;9.60;99.90
15916;DHT22;8057;47.830;-3.870;2023-02-03T09:17:09;9.50;99.90
15916;DHT22;8057;47.830;-3.870;2023-02-03T09:21:18;9.60;99.90
15916;DHT22;8057;47.830;-3.870;2023-02-03T09:25:43;9.60;99.90
15916;DHT22;8057;47.830;-3.870;2023-02-03T09:29:55;9.70;99.90
15916;DHT22;8057;47.830;-3.870;2023-02-03T09:34:06;9.80;99.90
15916;DHT22;8057;47.830;-3.870;2023-02-03T09:38:15;9.80;99.90
15916;DHT22;8057;47.830;-3.870;2023-02-03T09:47:01;10.00;99.90
15916;DHT22;8057;47.830;-3.870;2023-02-03T09:51:20;10.00;99.90
15916;DHT22;8057;47.830;-3.870;2023-02-03T09:55:34;9.90;99.90
15916;DHT22;8057;47.830;-3.870;2023-02-03T09:59:47;10.00;99.90
15916;DHT22;8057;47.830;-3.870;2023-02-03T10:04:01;10.10;99.90
15916;DHT22;8057;47.830;-3.870;2023-02-03T10:08:21;10.10;99.90
15916;DHT22;8057;47.830;-3.870;2023-02-03T10:13:04;10.30;99.90
15916;DHT22;8057;47.830;-3.870;2023-02-03T10:17:24;10.40;99.90
15916;DHT22;8057;47.830;-3.870;2023-02-03T10:21:40;10.50;99.90
15916;DHT22;8057;47.830;-3.870;2023-02-03T10:25:54;10.60;99.90
15916;DHT22;8057;47.830;-3.870;2023-02-03T10:30:18;10.70;99.90
15916;DHT22;8057;47.830;-3.870;2023-02-03T10:34:28;10.70;99.90
15916;DHT22;8057;47.830;-3.870;2023-02-03T10:38:44;10.70;99.90
15916;DHT22;8057;47.830;-3.870;2023-02-03T10:42:58;10.60;99.90
15916;DHT22;8057;47.830;-3.870;2023-02-03T10:47:31;10.60;99.90
15916;DHT22;8057;47.830;-3.870;2023-02-03T10:51:48;10.70;99.90
15916;DHT22;8057;47.830;-3.870;2023-02-03T10:56:04;10.70;99.90
15916;DHT22;8057;47.830;-3.870;2023-02-03T11:00:28;10.70;99.90
15916;DHT22;8057;47.830;-3.870;2023-02-03T11:04:38;10.70;99.90
15916;DHT22;8057;47.830;-3.870;2023-02-03T11:08:49;10.70;99.90
15916;DHT22;8057;47.830;-3.870;2023-02-03T11:13:17;10.80;99.90
15916;DHT22;8057;47.830;-3.870;2023-02-03T11:17:29;10.80;99.90
15916;DHT22;8057;47.830;-3.870;2023-02-03T11:21:43;10.90;99.90
15916;DHT22;8057;47.830;-3.870;2023-02-03T11:26:15;11.00;99.90
15916;DHT22;8057;47.830;-3.870;2023-02-03T11:30:28;11.10;99.90
15916;DHT22;8057;47.830;-3.870;2023-02-03T11:34:45;11.10;99.90
15916;DHT22;8057;47.830;-3.870;2023-02-03T11:39:18;11.20;99.90
15916;DHT22;8057;47.830;-3.870;2023-02-03T11:43:30;11.20;99.90
15916;DHT22;8057;47.830;-3.870;2023-02-03T11:47:44;11.30;99.90
15916;DHT22;8057;47.830;-3.870;2023-02-03T11:52:05;11.40;99.90
15916;DHT22;8057;47.830;-3.870;2023-02-03T11:56:30;11.50;99.90
15916;DHT22;8057;47.830;-3.870;2023-02-03T12:00:43;11.50;99.90
15916;DHT22;8057;47.830;-3.870;2023-02-03T12:05:17;11.50;99.90
15916;DHT22;8057;47.830;-3.870;2023-02-03T12:09:48;11.70;99.90
15916;DHT22;8057;47.830;-3.870;2023-02-03T12:14:25;11.60;99.90
15916;DHT22;8057;47.830;-3.870;2023-02-03T12:18:47;11.70;99.90
15916;DHT22;8057;47.830;-3.870;2023-02-03T12:23:14;11.80;99.90
15916;DHT22;8057;47.830;-3.870;2023-02-03T12:27:52;11.80;99.90
15916;DHT22;8057;47.830;-3.870;2023-02-03T12:32:41;11.70;99.90
15916;DHT22;8057;47.830;-3.870;2023-02-03T12:37:16;11.70;99.90
15916;DHT22;8057;47.830;-3.870;2023-02-03T12:41:36;11.70;99.90
15916;DHT22;8057;47.830;-3.870;2023-02-03T12:45:51;11.70;99.90
15916;DHT22;8057;47.830;-3.870;2023-02-03T12:50:06;11.70;99.90
15916;DHT22;8057;47.830;-3.870;2023-02-03T12:54:38;11.60;99.90
15916;DHT22;8057;47.830;-3.870;2023-02-03T12:59:19;11.50;99.90
15916;DHT22;8057;47.830;-3.870;2023-02-03T13:03:39;11.50;99.90
15916;DHT22;8057;47.830;-3.870;2023-02-03T13:07:54;11.60;99.90
15916;DHT22;8057;47.830;-3.870;2023-02-03T13:12:10;11.70;99.90
15916;DHT22;8057;47.830;-3.870;2023-02-03T13:16:31;11.70;99.90
15916;DHT22;8057;47.830;-3.870;2023-02-03T13:20:49;11.60;99.90
15916;DHT22;8057;47.830;-3.870;2023-02-03T13:25:04;11.70;99.90
15916;DHT22;8057;47.830;-3.870;2023-02-03T13:29:47;11.70;99.90
15916;DHT22;8057;47.830;-3.870;2023-02-03T13:34:38;11.70;99.90
15916;DHT22;8057;47.830;-3.870;2023-02-03T13:39:33;11.70;99.90
15916;DHT22;8057;47.830;-3.870;2023-02-03T13:43:59;11.60;99.90
15916;DHT22;8057;47.830;-3.870;2023-02-03T13:48:33;11.60;99.90
15916;DHT22;8057;47.830;-3.870;2023-02-03T13:52:58;11.60;99.90
15916;DHT22;8057;47.830;-3.870;2023-02-03T13:57:23;11.30;99.90
15916;DHT22;8057;47.830;-3.870;2023-02-03T14:01:36;11.30;99.90
15916;DHT22;8057;47.830;-3.870;2023-02-03T14:05:47;11.30;99.90
15916;DHT22;8057;47.830;-3.870;2023-02-03T14:10:19;11.40;99.90
15916;DHT22;8057;47.830;-3.870;2023-02-03T14:15:30;11.40;99.90
15916;DHT22;8057;47.830;-3.870;2023-02-03T14:19:54;11.40;99.90
15916;DHT22;8057;47.830;-3.870;2023-02-03T14:24:16;11.50;99.90
15916;DHT22;8057;47.830;-3.870;2023-02-03T14:28:37;11.40;99.90
15916;DHT22;8057;47.830;-3.870;2023-02-03T14:33:02;11.50;99.90
15916;DHT22;8057;47.830;-3.870;2023-02-03T14:37:20;11.50;99.90
15916;DHT22;8057;47.830;-3.870;2023-02-03T14:41:47;11.50;99.90
15916;DHT22;8057;47.830;-3.870;2023-02-03T14:46:19;11.50;99.90
15916;DHT22;8057;47.830;-3.870;2023-02-03T14:50:52;11.50;99.90
15916;DHT22;8057;47.830;-3.870;2023-02-03T14:55:24;11.40;99.90
15916;DHT22;8057;47.830;-3.870;2023-02-03T14:59:41;11.40;99.90
15916;DHT22;8057;47.830;-3.870;2023-02-03T15:04:20;11.50;99.90
15916;DHT22;8057;47.830;-3.870;2023-02-03T15:13:31;11.50;99.90
15916;DHT22;8057;47.830;-3.870;2023-02-03T15:17:41;11.40;99.90
15916;DHT22;8057;47.830;-3.870;2023-02-03T15:21:52;11.40;99.90
15916;DHT22;8057;47.830;-3.870;2023-02-03T15:26:09;11.40;99.90
15916;DHT22;8057;47.830;-3.870;2023-02-03T15:30:56;11.30;99.90
15916;DHT22;8057;47.830;-3.870;2023-02-03T15:35:16;11.30;99.90
15916;DHT22;8057;47.830;-3.870;2023-02-03T15:39:38;11.20;99.90
15916;DHT22;8057;47.830;-3.870;2023-02-03T15:44:01;11.20;99.90
15916;DHT22;8057;47.830;-3.870;2023-02-03T15:48:17;11.20;99.90
15916;DHT22;8057;47.830;-3.870;2023-02-03T15:52:35;11.20;99.90
15916;DHT22;8057;47.830;-3.870;2023-02-03T15:56:51;11.20;99.90
15916;DHT22;8057;47.830;-3.870;2023-02-03T16:01:21;11.20;99.90
15916;DHT22;8057;47.830;-3.870;2023-02-03T16:05:37;11.20;99.90
15916;DHT22;8057;47.830;-3.870;2023-02-03T16:09:51;11.10;99.90
15916;DHT22;8057;47.830;-3.870;2023-02-03T16:14:03;11.00;99.90
15916;DHT22;8057;47.830;-3.870;2023-02-03T16:18:15;11.00;99.90
15916;DHT22;8057;47.830;-3.870;2023-02-03T16:22:36;11.00;99.90
15916;DHT22;8057;47.830;-3.870;2023-02-03T16:26:47;10.90;99.90
15916;DHT22;8057;47.830;-3.870;2023-02-03T16:30:59;10.90;99.90
15916;DHT22;8057;47.830;-3.870;2023-02-03T16:35:32;10.80;99.90
15916;DHT22;8057;47.830;-3.870;2023-02-03T16:40:00;10.80;99.90
15916;DHT22;8057;47.830;-3.870;2023-02-03T16:44:26;10.80;99.90
15916;DHT22;8057;47.830;-3.870;2023-02-03T16:48:55;10.70;99.90
15916;DHT22;8057;47.830;-3.870;2023-02-03T16:53:29;10.60;99.90
15916;DHT22;8057;47.830;-3.870;2023-02-03T16:57:41;10.50;99.90
15916;DHT22;8057;47.830;-3.870;2023-02-03T17:01:51;10.50;99.90
15916;DHT22;8057;47.830;-3.870;2023-02-03T17:06:03;10.50;99.90
15916;DHT22;8057;47.830;-3.870;2023-02-03T17:10:27;10.40;99.90
15916;DHT22;8057;47.830;-3.870;2023-02-03T17:14:40;10.50;99.90
15916;DHT22;8057;47.830;-3.870;2023-02-03T17:18:50;10.40;99.90
15916;DHT22;8057;47.830;-3.870;2023-02-03T17:23:00;10.20;99.90
15916;DHT22;8057;47.830;-3.870;2023-02-03T17:27:10;10.20;99.90
15916;DHT22;8057;47.830;-3.870;2023-02-03T17:31:21;10.20;99.90
15916;DHT22;8057;47.830;-3.870;2023-02-03T17:35:33;10.20;99.90
15916;DHT22;8057;47.830;-3.870;2023-02-03T17:39:43;10.20;99.90
15916;DHT22;8057;47.830;-3.870;2023-02-03T17:44:11;10.20;99.90
15916;DHT22;8057;47.830;-3.870;2023-02-03T17:48:39;10.20;99.90
15916;DHT22;8057;47.830;-3.870;2023-02-03T17:53:08;10.10;99.90
15916;DHT22;8057;47.830;-3.870;2023-02-03T17:57:16;10.00;99.90
15916;DHT22;8057;47.830;-3.870;2023-02-03T18:01:25;10.00;99.90
15916;DHT22;8057;47.830;-3.870;2023-02-03T18:05:36;10.00;99.90
15916;DHT22;8057;47.830;-3.870;2023-02-03T18:09:46;10.00;99.90
15916;DHT22;8057;47.830;-3.870;2023-02-03T18:13:55;10.00;99.90
15916;DHT22;8057;47.830;-3.870;2023-02-03T18:18:05;10.00;99.90
15916;DHT22;8057;47.830;-3.870;2023-02-03T18:22:16;9.90;99.90
15916;DHT22;8057;47.830;-3.870;2023-02-03T18:26:26;9.80;99.90
15916;DHT22;8057;47.830;-3.870;2023-02-03T18:30:36;9.80;99.90
15916;DHT22;8057;47.830;-3.870;2023-02-03T18:34:48;9.80;99.90
15916;DHT22;8057;47.830;-3.870;2023-02-03T18:39:01;9.80;99.90
15916;DHT22;8057;47.830;-3.870;2023-02-03T18:43:11;9.80;99.90
15916;DHT22;8057;47.830;-3.870;2023-02-03T18:47:20;9.80;99.90
15916;DHT22;8057;47.830;-3.870;2023-02-03T18:51:29;9.80;99.90
15916;DHT22;8057;47.830;-3.870;2023-02-03T18:55:42;9.80;99.90
15916;DHT22;8057;47.830;-3.870;2023-02-03T18:59:52;9.70;99.90
15916;DHT22;8057;47.830;-3.870;2023-02-03T19:04:03;9.70;99.90
15916;DHT22;8057;47.830;-3.870;2023-02-03T19:08:13;9.70;99.90
15916;DHT22;8057;47.830;-3.870;2023-02-03T19:12:23;9.80;99.90
15916;DHT22;8057;47.830;-3.870;2023-02-03T19:16:34;9.80;99.90
15916;DHT22;8057;47.830;-3.870;2023-02-03T19:20:44;9.80;99.90
15916;DHT22;8057;47.830;-3.870;2023-02-03T19:24:54;9.80;99.90
15916;DHT22;8057;47.830;-3.870;2023-02-03T19:29:06;9.70;99.90
15916;DHT22;8057;47.830;-3.870;2023-02-03T19:33:15;9.60;99.90
15916;DHT22;8057;47.830;-3.870;2023-02-03T19:37:25;9.60;99.90
15916;DHT22;8057;47.830;-3.870;2023-02-03T19:41:34;9.70;99.90
15916;DHT22;8057;47.830;-3.870;2023-02-03T19:45:45;9.70;99.90
15916;DHT22;8057;47.830;-3.870;2023-02-03T19:49:54;9.70;99.90
15916;DHT22;8057;47.830;-3.870;2023-02-03T19:54:04;9.70;99.90
15916;DHT22;8057;47.830;-3.870;2023-02-03T19:58:14;9.70;99.90
15916;DHT22;8057;47.830;-3.870;2023-02-03T20:02:25;9.70;99.90
15916;DHT22;8057;47.830;-3.870;2023-02-03T20:06:34;9.70;99.90
15916;DHT22;8057;47.830;-3.870;2023-02-03T20:10:44;9.70;99.90
15916;DHT22;8057;47.830;-3.870;2023-02-03T20:14:53;9.80;99.90
15916;DHT22;8057;47.830;-3.870;2023-02-03T20:19:04;9.70;99.90
15916;DHT22;8057;47.830;-3.870;2023-02-03T20:23:14;9.70;99.90
15916;DHT22;8057;47.830;-3.870;2023-02-03T20:27:23;9.70;99.90
15916;DHT22;8057;47.830;-3.870;2023-02-03T20:31:32;9.70;99.90
15916;DHT22;8057;47.830;-3.870;2023-02-03T20:35:44;9.50;99.90
15916;DHT22;8057;47.830;-3.870;2023-02-03T20:39:53;9.40;99.90
15916;DHT22;8057;47.830;-3.870;2023-02-03T20:44:04;9.40;99.90
15916;DHT22;8057;47.830;-3.870;2023-02-03T20:48:15;9.50;99.90
15916;DHT22;8057;47.830;-3.870;2023-02-03T20:52:28;9.40;99.90
15916;DHT22;8057;47.830;-3.870;2023-02-03T20:56:38;9.40;99.90
15916;DHT22;8057;47.830;-3.870;2023-02-03T21:00:47;9.40;99.90
15916;DHT22;8057;47.830;-3.870;2023-02-03T21:04:58;9.30;99.90
15916;DHT22;8057;47.830;-3.870;2023-02-03T21:09:14;9.30;99.90
15916;DHT22;8057;47.830;-3.870;2023-02-03T21:13:25;9.40;99.90
15916;DHT22;8057;47.830;-3.870;2023-02-03T21:17:35;9.30;99.90
15916;DHT22;8057;47.830;-3.870;2023-02-03T21:21:44;9.40;99.90
15916;DHT22;8057;47.830;-3.870;2023-02-03T21:25:55;9.40;99.90
15916;DHT22;8057;47.830;-3.870;2023-02-03T21:30:21;9.30;99.90
15916;DHT22;8057;47.830;-3.870;2023-02-03T21:34:35;9.20;99.90
15916;DHT22;8057;47.830;-3.870;2023-02-03T21:38:47;9.20;99.90
15916;DHT22;8057;47.830;-3.870;2023-02-03T21:43:00;9.30;99.90
15916;DHT22;8057;47.830;-3.870;2023-02-03T21:47:11;9.30;99.90
15916;DHT22;8057;47.830;-3.870;2023-02-03T21:51:24;9.30;99.90
15916;DHT22;8057;47.830;-3.870;2023-02-03T21:55:33;9.30;99.90
15916;DHT22;8057;47.830;-3.870;2023-02-03T21:59:44;9.20;99.90
15916;DHT22;8057;47.830;-3.870;2023-02-03T22:03:55;9.10;99.90
15916;DHT22;8057;47.830;-3.870;2023-02-03T22:08:17;9.10;99.90
15916;DHT22;8057;47.830;-3.870;2023-02-03T22:12:27;9.10;99.90
15916;DHT22;8057;47.830;-3.870;2023-02-03T22:16:38;9.10;99.90
15916;DHT22;8057;47.830;-3.870;2023-02-03T22:20:47;9.10;99.90
15916;DHT22;8057;47.830;-3.870;2023-02-03T22:24:56;9.10;99.90
15916;DHT22;8057;47.830;-3.870;2023-02-03T22:29:06;9.10;99.90
15916;DHT22;8057;47.830;-3.870;2023-02-03T22:33:16;9.00;99.90
15916;DHT22;8057;47.830;-3.870;2023-02-03T22:37:26;9.00;99.90
15916;DHT22;8057;47.830;-3.870;2023-02-03T22:41:38;9.00;99.90
15916;DHT22;8057;47.830;-3.870;2023-02-03T22:45:48;9.00;99.90
15916;DHT22;8057;47.830;-3.870;2023-02-03T22:49:58;9.00;99.90
15916;DHT22;8057;47.830;-3.870;2023-02-03T22:54:08;9.10;99.90
15916;DHT22;8057;47.830;-3.870;2023-02-03T22:58:17;9.10;99.90
15916;DHT22;8057;47.830;-3.870;2023-02-03T23:02:26;9.00;99.90
15916;DHT22;8057;47.830;-3.870;2023-02-03T23:06:37;8.90;99.90
15916;DHT22;8057;47.830;-3.870;2023-02-03T23:10:46;8.80;99.90
15916;DHT22;8057;47.830;-3.870;2023-02-03T23:14:57;8.90;99.90
15916;DHT22;8057;47.830;-3.870;2023-02-03T23:19:07;8.90;99.90
15916;DHT22;8057;47.830;-3.870;2023-02-03T23:23:18;9.00;99.90
15916;DHT22;8057;47.830;-3.870;2023-02-03T23:27:27;8.90;99.90
15916;DHT22;8057;47.830;-3.870;2023-02-03T23:31:36;8.90;99.90
15916;DHT22;8057;47.830;-3.870;2023-02-03T23:35:45;8.80;99.90
15916;DHT22;8057;47.830;-3.870;2023-02-03T23:39:58;8.80;99.90
15916;DHT22;8057;47.830;-3.870;2023-02-03T23:44:07;8.80;99.90
15916;DHT22;8057;47.830;-3.870;2023-02-03T23:48:17;8.90;99.90
15916;DHT22;8057;47.830;-3.870;2023-02-03T23:52:26;8.90;99.90
15916;DHT22;8057;47.830;-3.870;2023-02-03T23:56:43;8.90;99.90
